createdAt,value
2017-02-11T00:00:25.940Z,0.21
2017-02-11T00:01:37.342Z,0.32
2017-02-11T00:02:48.755Z,0.31
2017-02-11T00:04:00.164Z,0.27
2017-02-11T00:05:11.764Z,0.32
2017-02-11T00:06:23.169Z,0.26
2017-02-11T00:07:34.575Z,0.21
2017-02-11T00:08:46.182Z,0.27
2017-02-11T00:09:57.780Z,0.28
2017-02-11T00:11:09.234Z,0.27
2017-02-11T00:12:20.630Z,0.28
2017-02-11T00:13:32.040Z,0.28
2017-02-11T00:14:43.645Z,0.27
2017-02-11T00:15:55.058Z,0.32
2017-02-11T00:17:06.468Z,0.35
2017-02-11T00:18:17.875Z,0.26
2017-02-11T00:19:29.471Z,0.27
2017-02-11T00:20:41.129Z,0.19
2017-02-11T00:21:52.541Z,0.23
2017-02-11T00:23:03.937Z,0.17
2017-02-11T00:24:15.343Z,0.17
2017-02-11T00:25:26.746Z,0.24
2017-02-11T00:26:38.147Z,0.21
2017-02-11T00:27:49.549Z,0.16
2017-02-11T00:29:00.955Z,0.27
2017-02-11T00:30:12.361Z,0.21
2017-02-11T00:31:23.821Z,0.23
2017-02-11T00:32:35.426Z,0.21
2017-02-11T00:33:46.835Z,0.24
2017-02-11T00:34:58.238Z,0.16
2017-02-11T00:36:09.646Z,0.19
2017-02-11T00:37:21.054Z,0.23
2017-02-11T00:38:32.465Z,0.24
2017-02-11T00:39:43.872Z,0.27
2017-02-11T00:40:55.261Z,0.28
2017-02-11T00:42:06.702Z,0.31
2017-02-11T00:43:18.101Z,0.31
2017-02-11T00:44:29.509Z,0.28
2017-02-11T00:45:40.922Z,0.31
2017-02-11T00:46:52.530Z,0.26
2017-02-11T00:48:03.982Z,0.34
2017-02-11T00:49:15.614Z,0.26
2017-02-11T00:50:27.027Z,0.24
2017-02-11T00:51:38.425Z,0.23
2017-02-11T00:52:49.827Z,0.26
2017-02-11T00:54:01.224Z,0.17
2017-02-11T00:55:12.625Z,0.26
2017-02-11T00:56:24.029Z,0.23
2017-02-11T00:57:35.630Z,0.23
2017-02-11T00:58:47.024Z,0.27
2017-02-11T00:59:58.472Z,0.21
2017-02-11T01:01:09.914Z,0.31
2017-02-11T01:02:21.526Z,0.34
2017-02-11T01:03:32.924Z,0.37
2017-02-11T01:04:44.580Z,0.38
2017-02-11T01:05:55.983Z,0.37
2017-02-11T01:07:07.432Z,0.37
2017-02-11T01:08:18.841Z,0.34
2017-02-11T01:09:30.497Z,0.41
2017-02-11T01:10:42.100Z,0.34
2017-02-11T01:11:53.526Z,0.38
2017-02-11T01:13:04.931Z,0.38
2017-02-11T01:14:16.328Z,0.41
2017-02-11T01:15:27.931Z,0.44
2017-02-11T01:16:39.340Z,0.45
2017-02-11T01:17:50.942Z,0.44
2017-02-11T01:19:02.349Z,0.38
2017-02-11T01:20:13.792Z,0.39
2017-02-11T01:21:25.191Z,0.42
2017-02-11T01:22:36.599Z,0.47
2017-02-11T01:23:48.201Z,0.41
2017-02-11T01:24:59.596Z,0.41
2017-02-11T01:26:10.987Z,0.35
2017-02-11T01:27:22.391Z,0.38
2017-02-11T01:28:33.792Z,0.37
2017-02-11T01:29:45.402Z,0.47
2017-02-11T01:30:56.848Z,0.53
2017-02-11T01:32:08.259Z,0.52
2017-02-11T01:33:20.068Z,0.56
2017-02-11T01:34:31.684Z,0.57
2017-02-11T01:35:43.088Z,0.52
2017-02-11T01:36:54.488Z,0.48
2017-02-11T01:38:05.901Z,0.58
2017-02-11T01:39:17.300Z,0.63
2017-02-11T01:40:28.695Z,0.6
2017-02-11T01:41:40.105Z,0.57
2017-02-11T01:42:51.557Z,0.56
2017-02-11T01:44:02.954Z,0.6
2017-02-11T01:45:14.342Z,0.47
2017-02-11T01:46:25.734Z,0.58
2017-02-11T01:47:37.136Z,0.56
2017-02-11T01:48:48.531Z,0.57
2017-02-11T01:49:59.934Z,0.57
2017-02-11T01:51:11.332Z,0.57
2017-02-11T01:52:22.784Z,0.53
2017-02-11T01:53:34.186Z,0.57
2017-02-11T01:54:45.591Z,0.66
2017-02-11T01:55:56.995Z,0.53
2017-02-11T01:57:08.396Z,0.66
2017-02-11T01:58:19.806Z,0.6
2017-02-11T01:59:31.211Z,0.58
2017-02-11T02:00:42.614Z,0.58
2017-02-11T02:01:54.016Z,0.58
2017-02-11T02:03:05.665Z,0.6
2017-02-11T02:04:17.059Z,0.56
2017-02-11T02:05:28.865Z,0.6
2017-02-11T02:06:40.269Z,0.66
2017-02-11T02:07:51.696Z,0.56
2017-02-11T02:09:03.139Z,0.57
2017-02-11T02:10:14.539Z,0.63
2017-02-11T02:11:25.942Z,0.58
2017-02-11T02:12:37.349Z,0.6
2017-02-11T02:13:49.204Z,0.58
2017-02-11T02:15:00.606Z,0.64
2017-02-11T02:16:12.000Z,0.56
2017-02-11T02:17:23.397Z,0.61
2017-02-11T02:18:34.998Z,0.63
2017-02-11T02:19:46.410Z,0.5
2017-02-11T02:20:57.815Z,0.57
2017-02-11T02:22:09.211Z,0.53
2017-02-11T02:23:20.619Z,0.58
2017-02-11T02:24:32.023Z,0.56
2017-02-11T02:25:43.426Z,0.52
2017-02-11T02:26:54.825Z,0.5
2017-02-11T02:28:06.231Z,0.47
2017-02-11T02:29:17.624Z,0.45
2017-02-11T02:30:29.075Z,0.6
2017-02-11T02:31:40.495Z,0.58
2017-02-11T02:32:52.094Z,0.56
2017-02-11T02:34:03.494Z,0.6
2017-02-11T02:35:14.913Z,0.6
2017-02-11T02:36:26.328Z,0.56
2017-02-11T02:37:37.733Z,0.63
2017-02-11T02:38:49.131Z,0.6
2017-02-11T02:40:00.585Z,0.64
2017-02-11T02:41:11.982Z,0.63
2017-02-11T02:42:23.383Z,0.57
2017-02-11T02:43:34.785Z,0.6
2017-02-11T02:44:46.385Z,0.5
2017-02-11T02:45:57.993Z,0.63
2017-02-11T02:47:09.397Z,0.6
2017-02-11T02:48:20.804Z,0.57
2017-02-11T02:49:32.213Z,0.61
2017-02-11T02:50:43.664Z,0.61
2017-02-11T02:51:55.076Z,0.67
2017-02-11T02:53:06.478Z,0.6
2017-02-11T02:54:17.883Z,0.66
2017-02-11T02:55:29.492Z,0.58
2017-02-11T02:56:40.885Z,0.58
2017-02-11T02:57:52.293Z,0.6
2017-02-11T02:59:03.698Z,0.52
2017-02-11T03:00:15.092Z,0.56
2017-02-11T03:01:26.539Z,0.6
2017-02-11T03:02:37.949Z,0.58
2017-02-11T03:03:49.356Z,0.64
2017-02-11T03:05:00.763Z,0.58
2017-02-11T03:06:12.574Z,0.57
2017-02-11T03:07:23.998Z,0.66
2017-02-11T03:08:35.395Z,0.63
2017-02-11T03:09:46.801Z,0.61
2017-02-11T03:10:58.219Z,0.6
2017-02-11T03:12:09.821Z,0.6
2017-02-11T03:13:21.225Z,0.63
2017-02-11T03:14:32.833Z,0.61
2017-02-11T03:15:44.232Z,0.6
2017-02-11T03:16:55.634Z,0.58
2017-02-11T03:18:07.291Z,0.58
2017-02-11T03:19:18.689Z,0.63
2017-02-11T03:20:30.090Z,0.6
2017-02-11T03:21:41.498Z,0.6
2017-02-11T03:22:52.898Z,0.57
2017-02-11T03:24:04.302Z,0.6
2017-02-11T03:25:15.704Z,0.63
2017-02-11T03:26:27.109Z,0.66
2017-02-11T03:27:38.524Z,0.63
2017-02-11T03:28:50.178Z,0.66
2017-02-11T03:30:01.600Z,0.66
2017-02-11T03:31:12.998Z,0.71
2017-02-11T03:32:24.400Z,0.67
2017-02-11T03:33:35.810Z,0.64
2017-02-11T03:34:47.258Z,0.71
2017-02-11T03:35:58.856Z,0.71
2017-02-11T03:37:10.260Z,0.66
2017-02-11T03:38:21.660Z,0.66
2017-02-11T03:39:33.112Z,0.66
2017-02-11T03:40:44.521Z,0.74
2017-02-11T03:41:55.918Z,0.69
2017-02-11T03:43:07.523Z,0.71
2017-02-11T03:44:19.128Z,0.6
2017-02-11T03:45:30.533Z,0.66
2017-02-11T03:46:41.934Z,0.66
2017-02-11T03:47:53.333Z,0.66
2017-02-11T03:49:04.733Z,0.63
2017-02-11T03:50:16.388Z,0.69
2017-02-11T03:51:27.799Z,0.64
2017-02-11T03:52:39.214Z,0.69
2017-02-11T03:53:50.615Z,0.74
2017-02-11T03:55:02.013Z,0.66
2017-02-11T03:56:13.461Z,0.6
2017-02-11T03:57:24.866Z,0.61
2017-02-11T03:58:36.275Z,0.66
2017-02-11T03:59:47.671Z,0.57
2017-02-11T04:00:59.080Z,0.56
2017-02-11T04:02:10.686Z,0.61
2017-02-11T04:03:22.078Z,0.61
2017-02-11T04:04:33.483Z,0.5
2017-02-11T04:05:44.889Z,0.48
2017-02-11T04:06:56.339Z,0.44
2017-02-11T04:08:07.745Z,0.42
2017-02-11T04:09:19.142Z,0.38
2017-02-11T04:10:30.551Z,0.37
2017-02-11T04:11:41.966Z,0.41
2017-02-11T04:12:53.366Z,0.44
2017-02-11T04:14:04.772Z,0.38
2017-02-11T04:15:16.176Z,0.35
2017-02-11T04:16:27.575Z,0.38
2017-02-11T04:17:39.023Z,0.41
2017-02-11T04:18:50.427Z,0.39
2017-02-11T04:20:02.032Z,0.39
2017-02-11T04:21:13.627Z,0.37
2017-02-11T04:22:25.224Z,0.35
2017-02-11T04:23:36.634Z,0.35
2017-02-11T04:24:48.034Z,0.41
2017-02-11T04:25:59.432Z,0.39
2017-02-11T04:27:11.034Z,0.39
2017-02-11T04:28:22.681Z,0.39
2017-02-11T04:29:34.080Z,0.35
2017-02-11T04:30:45.485Z,0.39
2017-02-11T04:31:56.883Z,0.44
2017-02-11T04:33:08.515Z,0.41
2017-02-11T04:34:19.922Z,0.34
2017-02-11T04:35:31.553Z,0.38
2017-02-11T04:36:42.957Z,0.38
2017-02-11T04:37:54.561Z,0.35
2017-02-11T04:39:06.019Z,0.42
2017-02-11T04:40:17.425Z,0.39
2017-02-11T04:41:29.016Z,0.34
2017-02-11T04:42:40.402Z,0.45
2017-02-11T04:43:51.806Z,0.41
2017-02-11T04:45:03.209Z,0.34
2017-02-11T04:46:14.612Z,0.34
2017-02-11T04:47:26.018Z,0.32
2017-02-11T04:48:37.620Z,0.35
2017-02-11T04:49:49.021Z,0.35
2017-02-11T04:51:00.478Z,0.37
2017-02-11T04:52:11.875Z,0.34
2017-02-11T04:53:23.299Z,0.28
2017-02-11T04:54:34.713Z,0.31
2017-02-11T04:55:46.117Z,0.28
2017-02-11T04:56:57.525Z,0.28
2017-02-11T04:58:09.124Z,0.23
2017-02-11T04:59:20.530Z,0.28
2017-02-11T05:00:31.975Z,0.2
2017-02-11T05:01:43.377Z,0.27
2017-02-11T05:02:54.773Z,0.16
2017-02-11T05:04:06.175Z,0.16
2017-02-11T05:05:17.575Z,0.2
2017-02-11T05:06:28.968Z,0.24
2017-02-11T05:07:40.367Z,0.2
2017-02-11T05:08:51.768Z,0.21
2017-02-11T05:10:03.173Z,0.21
2017-02-11T05:11:14.626Z,0.2
2017-02-11T05:12:26.233Z,0.27
2017-02-11T05:13:37.629Z,0.24
2017-02-11T05:14:49.033Z,0.23
2017-02-11T05:16:00.637Z,0.17
2017-02-11T05:17:12.036Z,0.16
2017-02-11T05:18:23.434Z,0.19
2017-02-11T05:19:35.041Z,0.17
2017-02-11T05:20:46.443Z,0.23
2017-02-11T05:21:58.097Z,0.14
2017-02-11T05:23:09.499Z,0.24
2017-02-11T05:24:21.110Z,0.19
2017-02-11T05:25:32.507Z,0.17
2017-02-11T05:26:43.908Z,0.19
2017-02-11T05:27:55.761Z,0.23
2017-02-11T05:29:07.163Z,0.16
2017-02-11T05:30:18.560Z,0.14
2017-02-11T05:31:29.971Z,0.24
2017-02-11T05:32:41.376Z,0.27
2017-02-11T05:33:52.777Z,0.19
2017-02-11T05:35:04.176Z,0.17
2017-02-11T05:36:15.576Z,0.21
2017-02-11T05:37:26.976Z,0.19
2017-02-11T05:38:38.434Z,0.16
2017-02-11T05:39:49.842Z,0.21
2017-02-11T05:41:01.841Z,0.2
2017-02-11T05:42:13.245Z,0.14
2017-02-11T05:43:24.641Z,0.16
2017-02-11T05:44:36.242Z,0.16
2017-02-11T05:45:47.653Z,0.17
2017-02-11T05:46:59.046Z,0.1
2017-02-11T05:48:10.458Z,0.13
2017-02-11T05:49:21.913Z,0.06
2017-02-11T05:50:33.320Z,0.08
2017-02-11T05:51:44.727Z,0.09
2017-02-11T05:52:56.128Z,0.16
2017-02-11T05:54:07.527Z,0.2
2017-02-11T05:55:18.925Z,0.1
2017-02-11T05:56:30.326Z,0.16
2017-02-11T05:57:41.738Z,0.17
2017-02-11T05:58:53.137Z,0.16
2017-02-11T06:00:04.580Z,0.13
2017-02-11T06:01:16.380Z,0.09
2017-02-11T06:02:27.790Z,0.09
2017-02-11T06:03:39.414Z,0.13
2017-02-11T06:04:50.812Z,0.1
2017-02-11T06:06:02.265Z,0.08
2017-02-11T06:07:13.666Z,0.09
2017-02-11T06:08:25.072Z,0.14
2017-02-11T06:09:36.476Z,0.1
2017-02-11T06:10:48.139Z,0.14
2017-02-11T06:11:59.546Z,0.06
2017-02-11T06:13:10.944Z,0.09
2017-02-11T06:14:22.340Z,0.03
2017-02-11T06:15:33.739Z,0.06
2017-02-11T06:16:45.172Z,0.13
2017-02-11T06:17:56.582Z,0.1
2017-02-11T06:19:07.978Z,0.1
2017-02-11T06:20:19.376Z,0.06
2017-02-11T06:21:30.822Z,0.05
2017-02-11T06:22:42.217Z,0.02
2017-02-11T06:23:53.820Z,-0.13
2017-02-11T06:25:05.227Z,0.03
2017-02-11T06:26:16.620Z,-0.12
2017-02-11T06:27:28.029Z,-0.05
2017-02-11T06:28:39.635Z,-0.05
2017-02-11T06:29:51.046Z,-0.02
2017-02-11T06:31:02.449Z,-0.09
2017-02-11T06:32:14.107Z,-0.18
2017-02-11T06:33:25.709Z,-0.13
2017-02-11T06:34:37.111Z,-0.16
2017-02-11T06:35:48.514Z,-0.2
2017-02-11T06:36:59.916Z,-0.05
2017-02-11T06:38:11.312Z,-0.02
2017-02-11T06:39:22.715Z,-0.09
2017-02-11T06:40:34.115Z,-0.19
2017-02-11T06:41:45.514Z,-0.1
2017-02-11T06:42:57.178Z,-0.15
2017-02-11T06:44:08.778Z,-0.09
2017-02-11T06:45:20.175Z,-0.2
2017-02-11T06:46:31.575Z,-0.09
2017-02-11T06:47:42.979Z,-0.18
2017-02-11T06:48:54.579Z,0.01
2017-02-11T06:50:05.983Z,-0.12
2017-02-11T06:51:17.380Z,-0.01
2017-02-11T06:52:29.188Z,0.02
2017-02-11T06:53:40.831Z,-0.07
2017-02-11T06:54:52.235Z,-0.01
2017-02-11T06:56:03.630Z,0.02
2017-02-11T06:57:15.033Z,-0.01
2017-02-11T06:58:26.468Z,0.05
2017-02-11T06:59:37.874Z,0.08
2017-02-11T07:00:49.280Z,0.08
2017-02-11T07:02:00.685Z,0.08
2017-02-11T07:03:12.082Z,0.06
2017-02-11T07:04:23.484Z,0.16
2017-02-11T07:05:34.941Z,0.17
2017-02-11T07:06:46.344Z,0.16
2017-02-11T07:07:57.753Z,0.1
2017-02-11T07:09:09.152Z,0.24
2017-02-11T07:10:20.548Z,0.1
2017-02-11T07:11:31.953Z,0.16
2017-02-11T07:12:43.347Z,0.23
2017-02-11T07:13:54.940Z,0.14
2017-02-11T07:15:06.418Z,0.23
2017-02-11T07:16:17.814Z,0.23
2017-02-11T07:17:29.416Z,0.19
2017-02-11T07:18:40.814Z,0.19
2017-02-11T07:19:52.222Z,0.23
2017-02-11T07:21:03.635Z,0.24
2017-02-11T07:22:15.035Z,0.27
2017-02-11T07:23:26.631Z,0.31
2017-02-11T07:24:38.032Z,0.28
2017-02-11T07:25:49.687Z,0.28
2017-02-11T07:27:01.106Z,0.34
2017-02-11T07:28:12.509Z,0.28
2017-02-11T07:29:23.943Z,0.2
2017-02-11T07:30:35.355Z,0.32
2017-02-11T07:31:46.758Z,0.26
2017-02-11T07:32:58.158Z,0.28
2017-02-11T07:34:09.768Z,0.37
2017-02-11T07:35:21.162Z,0.32
2017-02-11T07:36:32.603Z,0.34
2017-02-11T07:37:44.001Z,0.37
2017-02-11T07:38:55.406Z,0.35
2017-02-11T07:40:06.819Z,0.39
2017-02-11T07:41:18.221Z,0.38
2017-02-11T07:42:29.698Z,0.35
2017-02-11T07:43:41.099Z,0.45
2017-02-11T07:44:52.509Z,0.37
2017-02-11T07:46:03.906Z,0.42
2017-02-11T07:47:15.516Z,0.44
2017-02-11T07:48:26.909Z,0.56
2017-02-11T07:49:38.303Z,0.5
2017-02-11T07:50:49.707Z,0.56
2017-02-11T07:52:01.154Z,0.47
2017-02-11T07:53:12.559Z,0.48
2017-02-11T07:54:23.964Z,0.56
2017-02-11T07:55:35.367Z,0.47
2017-02-11T07:56:46.767Z,0.58
2017-02-11T07:57:58.160Z,0.53
2017-02-11T07:59:09.554Z,0.58
2017-02-11T08:00:20.969Z,0.6
2017-02-11T08:01:32.368Z,0.64
2017-02-11T08:02:44.021Z,0.56
2017-02-11T08:03:55.430Z,0.6
2017-02-11T08:05:06.827Z,0.6
2017-02-11T08:06:18.230Z,0.67
2017-02-11T08:07:29.630Z,0.71
2017-02-11T08:08:41.034Z,0.76
2017-02-11T08:09:52.444Z,0.75
2017-02-11T08:11:04.250Z,0.76
2017-02-11T08:12:15.650Z,0.81
2017-02-11T08:13:27.101Z,0.84
2017-02-11T08:14:38.508Z,0.85
2017-02-11T08:15:49.915Z,0.84
2017-02-11T08:17:01.343Z,0.78
2017-02-11T08:18:12.749Z,0.89
2017-02-11T08:19:24.148Z,0.9
2017-02-11T08:20:35.548Z,0.93
2017-02-11T08:21:46.945Z,0.93
2017-02-11T08:22:58.353Z,0.96
2017-02-11T08:24:09.816Z,0.97
2017-02-11T08:25:21.258Z,0.94
2017-02-11T08:26:32.666Z,0.96
2017-02-11T08:27:44.069Z,0.94
2017-02-11T08:28:55.467Z,0.92
2017-02-11T08:30:07.126Z,0.97
2017-02-11T08:31:18.532Z,0.96
2017-02-11T08:32:29.923Z,0.96
2017-02-11T08:33:41.314Z,0.99
2017-02-11T08:34:52.719Z,0.92
2017-02-11T08:36:04.184Z,0.96
2017-02-11T08:37:15.582Z,0.94
2017-02-11T08:38:27.002Z,0.96
2017-02-11T08:39:38.417Z,0.99
2017-02-11T08:40:50.025Z,0.97
2017-02-11T08:42:01.430Z,0.94
2017-02-11T08:43:13.038Z,0.99
2017-02-11T08:44:24.432Z,0.92
2017-02-11T08:45:35.880Z,0.93
2017-02-11T08:46:47.285Z,0.96
2017-02-11T08:47:58.688Z,0.96
2017-02-11T08:49:10.300Z,0.94
2017-02-11T08:50:21.904Z,0.89
2017-02-11T08:51:33.361Z,0.84
2017-02-11T08:52:44.770Z,0.94
2017-02-11T08:53:56.157Z,0.93
2017-02-11T08:55:07.562Z,0.82
2017-02-11T08:56:19.017Z,0.79
2017-02-11T08:57:30.615Z,0.84
2017-02-11T08:58:42.020Z,0.76
2017-02-11T08:59:53.418Z,0.78
2017-02-11T09:01:04.821Z,0.78
2017-02-11T09:02:16.232Z,0.74
2017-02-11T09:03:27.658Z,0.78
2017-02-11T09:04:39.056Z,0.78
2017-02-11T09:05:50.659Z,0.84
2017-02-11T09:07:02.113Z,0.81
2017-02-11T09:08:13.511Z,0.85
2017-02-11T09:09:24.911Z,0.9
2017-02-11T09:10:36.317Z,0.93
2017-02-11T09:11:47.720Z,0.9
2017-02-11T09:12:59.176Z,0.96
2017-02-11T09:14:10.579Z,0.99
2017-02-11T09:15:21.979Z,0.94
2017-02-11T09:16:33.379Z,0.89
2017-02-11T09:17:44.792Z,0.93
2017-02-11T09:18:56.395Z,0.99
2017-02-11T09:20:07.812Z,0.94
2017-02-11T09:21:19.209Z,0.92
2017-02-11T09:22:30.619Z,0.93
2017-02-11T09:23:42.067Z,0.96
2017-02-11T09:24:53.470Z,0.94
2017-02-11T09:26:04.879Z,0.9
2017-02-11T09:27:16.296Z,1.03
2017-02-11T09:28:27.707Z,0.97
2017-02-11T09:29:39.111Z,1.02
2017-02-11T09:30:50.510Z,0.97
2017-02-11T09:32:01.902Z,1.02
2017-02-11T09:33:13.305Z,1
2017-02-11T09:34:24.762Z,0.94
2017-02-11T09:35:36.156Z,1
2017-02-11T09:36:47.556Z,0.93
2017-02-11T09:37:59.158Z,1.04
2017-02-11T09:39:10.561Z,1.04
2017-02-11T09:40:21.950Z,1.02
2017-02-11T09:41:33.352Z,1.04
2017-02-11T09:42:44.749Z,0.99
2017-02-11T09:43:56.353Z,1.1
2017-02-11T09:45:07.810Z,1
2017-02-11T09:46:19.208Z,0.94
2017-02-11T09:47:30.604Z,1.11
2017-02-11T09:48:42.011Z,1.08
2017-02-11T09:49:53.421Z,1.11
2017-02-11T09:51:04.822Z,1.07
2017-02-11T09:52:16.226Z,1.1
2017-02-11T09:53:27.834Z,1.02
2017-02-11T09:54:39.245Z,1.07
2017-02-11T09:55:50.696Z,1.08
2017-02-11T09:57:02.092Z,1.14
2017-02-11T09:58:13.494Z,1.1
2017-02-11T09:59:59.335Z,1.2
2017-02-11T10:01:10.946Z,1.15
2017-02-11T10:02:22.351Z,1.1
2017-02-11T10:03:33.972Z,1.1
2017-02-11T10:04:45.378Z,1.14
2017-02-11T10:05:56.786Z,1.18
2017-02-11T10:07:08.182Z,1.15
2017-02-11T10:08:19.583Z,1.24
2017-02-11T10:09:30.983Z,1.2
2017-02-11T10:10:42.390Z,1.21
2017-02-11T10:11:53.847Z,1.24
2017-02-11T10:13:05.260Z,1.24
2017-02-11T10:14:16.659Z,1.24
2017-02-11T10:15:28.063Z,1.3
2017-02-11T10:16:39.474Z,1.33
2017-02-11T10:17:50.876Z,1.35
2017-02-11T10:19:02.274Z,1.28
2017-02-11T10:20:13.677Z,1.39
2017-02-11T10:21:25.077Z,1.39
2017-02-11T10:22:36.726Z,1.4
2017-02-11T10:23:48.126Z,1.32
2017-02-11T10:24:59.530Z,1.33
2017-02-11T10:26:10.934Z,1.33
2017-02-11T10:27:22.332Z,1.42
2017-02-11T10:28:33.733Z,1.44
2017-02-11T10:29:45.139Z,1.44
2017-02-11T10:30:56.754Z,1.51
2017-02-11T10:32:08.364Z,1.5
2017-02-11T10:33:19.817Z,1.54
2017-02-11T10:34:31.414Z,1.48
2017-02-11T10:35:42.816Z,1.51
2017-02-11T10:36:54.223Z,1.56
2017-02-11T10:38:05.827Z,1.65
2017-02-11T10:39:17.236Z,1.56
2017-02-11T10:40:28.640Z,1.58
2017-02-11T10:41:40.053Z,1.68
2017-02-11T10:42:51.859Z,1.65
2017-02-11T10:44:03.316Z,1.65
2017-02-11T10:45:14.707Z,1.6
2017-02-11T10:46:26.308Z,1.56
2017-02-11T10:47:37.719Z,1.56
2017-02-11T10:48:49.118Z,1.65
2017-02-11T10:50:00.722Z,1.61
2017-02-11T10:51:12.125Z,1.69
2017-02-11T10:52:23.739Z,1.68
2017-02-11T10:53:35.146Z,1.68
2017-02-11T10:54:46.547Z,1.65
2017-02-11T10:55:58.005Z,1.71
2017-02-11T10:57:09.423Z,1.66
2017-02-11T10:58:20.832Z,1.69
2017-02-11T10:59:32.244Z,1.66
2017-02-11T11:00:43.652Z,1.6
2017-02-11T11:01:55.262Z,1.66
2017-02-11T11:03:06.666Z,1.65
2017-02-11T11:04:18.079Z,1.61
2017-02-11T11:05:29.537Z,1.72
2017-02-11T11:06:41.144Z,1.75
2017-02-11T11:07:52.551Z,1.66
2017-02-11T11:09:03.958Z,1.58
2017-02-11T11:10:15.360Z,1.66
2017-02-11T11:11:26.965Z,1.58
2017-02-11T11:12:38.576Z,1.64
2017-02-11T11:13:50.186Z,1.68
2017-02-11T11:15:01.588Z,1.69
2017-02-11T11:16:13.041Z,1.69
2017-02-11T11:17:24.646Z,1.69
2017-02-11T11:18:36.058Z,1.75
2017-02-11T11:19:47.663Z,1.78
2017-02-11T11:20:59.073Z,1.84
2017-02-11T11:22:10.480Z,1.84
2017-02-11T11:23:21.878Z,1.93
2017-02-11T11:24:33.287Z,1.83
2017-02-11T11:25:44.695Z,1.92
2017-02-11T11:26:56.142Z,1.86
2017-02-11T11:28:07.548Z,1.94
2017-02-11T11:29:18.947Z,1.97
2017-02-11T11:30:30.358Z,1.94
2017-02-11T11:31:41.759Z,1.97
2017-02-11T11:32:53.165Z,2.02
2017-02-11T11:34:04.567Z,2.05
2017-02-11T11:35:15.972Z,2.05
2017-02-11T11:36:27.366Z,2.05
2017-02-11T11:37:38.966Z,2.09
2017-02-11T11:38:50.469Z,2.02
2017-02-11T11:40:01.872Z,2.15
2017-02-11T11:41:13.273Z,2.2
2017-02-11T11:42:24.898Z,2.11
2017-02-11T11:43:36.558Z,2.22
2017-02-11T11:44:48.171Z,2.18
2017-02-11T11:45:59.578Z,2.27
2017-02-11T11:47:10.977Z,2.33
2017-02-11T11:48:22.386Z,2.42
2017-02-11T11:49:33.851Z,2.47
2017-02-11T11:50:45.255Z,2.49
2017-02-11T11:51:56.662Z,2.41
2017-02-11T11:53:08.067Z,2.48
2017-02-11T11:54:19.518Z,2.45
2017-02-11T11:55:30.926Z,2.48
2017-02-11T11:56:42.529Z,2.49
2017-02-11T11:57:53.972Z,2.54
2017-02-11T11:59:05.372Z,2.6
2017-02-11T12:00:16.771Z,2.65
2017-02-11T12:01:28.174Z,2.55
2017-02-11T12:02:39.583Z,2.58
2017-02-11T12:03:50.987Z,2.59
2017-02-11T12:05:02.449Z,2.66
2017-02-11T12:06:14.057Z,2.63
2017-02-11T12:07:25.657Z,2.62
2017-02-11T12:08:37.270Z,2.63
2017-02-11T12:09:48.675Z,2.62
2017-02-11T12:11:00.082Z,2.77
2017-02-11T12:12:11.487Z,2.66
2017-02-11T12:13:23.102Z,2.83
2017-02-11T12:14:34.507Z,2.83
2017-02-11T12:15:45.962Z,2.87
2017-02-11T12:16:57.369Z,2.98
2017-02-11T12:18:08.783Z,2.98
2017-02-11T12:19:20.202Z,2.99
2017-02-11T12:20:31.600Z,3.06
2017-02-11T12:21:43.006Z,3.17
2017-02-11T12:22:54.616Z,3.2
2017-02-11T12:24:06.020Z,3.11
2017-02-11T12:25:17.413Z,3.11
2017-02-11T12:26:28.812Z,3.23
2017-02-11T12:27:40.224Z,3.2
2017-02-11T12:28:51.628Z,3.17
2017-02-11T12:30:03.034Z,3.14
2017-02-11T12:31:14.634Z,3.14
2017-02-11T12:32:26.085Z,3.09
2017-02-11T12:33:37.493Z,3.16
2017-02-11T12:34:48.894Z,3.19
2017-02-11T12:36:00.499Z,3.16
2017-02-11T12:37:11.944Z,3.14
2017-02-11T12:38:23.372Z,3.13
2017-02-11T12:39:34.774Z,3.16
2017-02-11T12:40:46.176Z,3.2
2017-02-11T12:41:57.786Z,3.13
2017-02-11T12:43:09.243Z,3.16
2017-02-11T12:44:20.847Z,3.2
2017-02-11T12:45:32.244Z,3.19
2017-02-11T12:46:43.659Z,3.29
2017-02-11T12:47:55.074Z,3.34
2017-02-11T12:49:06.498Z,3.32
2017-02-11T12:50:17.905Z,3.29
2017-02-11T12:51:29.727Z,3.29
2017-02-11T12:52:41.138Z,3.27
2017-02-11T12:53:52.592Z,3.35
2017-02-11T12:55:04.003Z,3.4
2017-02-11T12:56:15.405Z,3.37
2017-02-11T12:57:26.818Z,3.42
2017-02-11T12:58:38.226Z,3.51
2017-02-11T12:59:49.634Z,3.53
2017-02-11T13:01:01.043Z,3.53
2017-02-11T13:02:12.442Z,3.49
2017-02-11T13:03:23.849Z,3.46
2017-02-11T13:04:35.486Z,3.46
2017-02-11T13:05:47.097Z,3.43
2017-02-11T13:06:58.513Z,3.56
2017-02-11T13:08:09.922Z,3.56
2017-02-11T13:09:21.330Z,3.57
2017-02-11T13:10:32.786Z,3.53
2017-02-11T13:11:44.194Z,3.45
2017-02-11T13:12:55.806Z,3.49
2017-02-11T13:14:07.426Z,3.54
2017-02-11T13:15:18.839Z,3.56
2017-02-11T13:16:30.448Z,3.6
2017-02-11T13:17:41.860Z,3.6
2017-02-11T13:18:53.665Z,3.67
2017-02-11T13:20:05.321Z,3.66
2017-02-11T13:21:16.718Z,3.78
2017-02-11T13:22:28.327Z,3.79
2017-02-11T13:23:39.732Z,3.74
2017-02-11T13:24:51.140Z,3.81
2017-02-11T13:26:02.598Z,3.86
2017-02-11T13:27:14.002Z,3.85
2017-02-11T13:28:25.414Z,4.24
2017-02-11T13:29:36.827Z,4.51
2017-02-11T13:30:48.487Z,4.71
2017-02-11T13:31:59.892Z,4.92
2017-02-11T13:33:11.308Z,5
2017-02-11T13:34:23.114Z,5.06
2017-02-11T13:35:34.520Z,5.16
2017-02-11T13:36:45.925Z,5.15
2017-02-11T13:37:57.327Z,5.33
2017-02-11T13:39:08.785Z,5.26
2017-02-11T13:40:20.192Z,5.27
2017-02-11T13:41:31.651Z,5.24
2017-02-11T13:42:43.052Z,5.3
2017-02-11T13:43:54.461Z,5.34
2017-02-11T13:45:06.074Z,5.44
2017-02-11T13:46:17.476Z,5.48
2017-02-11T13:47:28.885Z,5.41
2017-02-11T13:48:40.501Z,5.45
2017-02-11T13:49:51.911Z,5.33
2017-02-11T13:51:03.319Z,5.24
2017-02-11T13:52:14.927Z,5.02
2017-02-11T13:53:26.532Z,5.02
2017-02-11T13:54:37.932Z,4.87
2017-02-11T13:55:49.340Z,4.84
2017-02-11T13:57:00.946Z,4.83
2017-02-11T13:58:12.391Z,4.88
2017-02-11T13:59:23.791Z,4.85
2017-02-11T14:00:35.196Z,4.84
2017-02-11T14:01:46.597Z,4.83
2017-02-11T14:02:58.008Z,4.83
2017-02-11T14:04:09.420Z,4.78
2017-02-11T14:05:20.828Z,4.72
2017-02-11T14:06:32.239Z,4.79
2017-02-11T14:07:43.645Z,4.74
2017-02-11T14:08:55.104Z,4.68
2017-02-11T14:10:06.516Z,4.56
2017-02-11T14:11:18.327Z,4.5
2017-02-11T14:12:29.738Z,4.46
2017-02-11T14:13:41.167Z,4.53
2017-02-11T14:14:52.574Z,4.48
2017-02-11T14:16:03.974Z,4.51
2017-02-11T14:17:15.370Z,4.51
2017-02-11T14:18:26.974Z,4.39
2017-02-11T14:19:38.668Z,4.42
2017-02-11T14:20:50.071Z,4.33
2017-02-11T14:22:01.484Z,4.28
2017-02-11T14:23:12.887Z,4.3
2017-02-11T14:24:24.505Z,4.35
2017-02-11T14:25:35.905Z,4.38
2017-02-11T14:26:47.311Z,4.42
2017-02-11T14:27:58.730Z,4.33
2017-02-11T14:29:10.139Z,4.28
2017-02-11T14:30:21.552Z,4.33
2017-02-11T14:31:32.957Z,4.26
2017-02-11T14:32:44.364Z,4.18
2017-02-11T14:33:56.174Z,4.11
2017-02-11T14:35:07.592Z,4.04
2017-02-11T14:36:18.997Z,4.2
2017-02-11T14:37:30.410Z,4.15
2017-02-11T14:38:41.823Z,4.11
2017-02-11T14:39:53.230Z,4.08
2017-02-11T14:41:04.885Z,4.12
2017-02-11T14:42:16.495Z,4.07
2017-02-11T14:43:27.902Z,4.04
2017-02-11T14:44:39.315Z,4.11
2017-02-11T14:45:50.726Z,4.12
2017-02-11T14:47:02.336Z,4.14
2017-02-11T14:48:13.741Z,4.12
2017-02-11T14:49:25.350Z,4.1
2017-02-11T14:50:36.757Z,4.15
2017-02-11T14:51:48.415Z,4.11
2017-02-11T14:52:59.826Z,4.14
2017-02-11T14:54:11.433Z,4.12
2017-02-11T14:55:22.833Z,4.11
2017-02-11T14:56:34.446Z,4.02
2017-02-11T14:57:45.911Z,4.02
2017-02-11T14:58:57.319Z,4.07
2017-02-11T15:00:08.724Z,4.1
2017-02-11T15:01:20.128Z,4.07
2017-02-11T15:02:31.583Z,4.12
2017-02-11T15:03:43.189Z,4.1
2017-02-11T15:04:54.586Z,4.07
2017-02-11T15:06:05.986Z,3.97
2017-02-11T15:07:17.389Z,3.96
2017-02-11T15:08:28.839Z,3.85
2017-02-11T15:09:40.243Z,3.97
2017-02-11T15:10:51.649Z,3.82
2017-02-11T15:12:03.246Z,3.9
2017-02-11T15:13:14.658Z,3.97
2017-02-11T15:14:26.058Z,3.84
2017-02-11T15:15:37.665Z,3.9
2017-02-11T15:16:49.281Z,3.85
2017-02-11T15:18:00.695Z,3.78
2017-02-11T15:19:12.317Z,3.85
2017-02-11T15:20:23.736Z,3.74
2017-02-11T15:21:35.139Z,3.76
2017-02-11T15:22:46.547Z,3.72
2017-02-11T15:23:57.951Z,3.75
2017-02-11T15:25:09.408Z,3.69
2017-02-11T15:26:20.823Z,3.74
2017-02-11T15:27:32.231Z,3.63
2017-02-11T15:28:43.627Z,3.61
2017-02-11T15:29:55.036Z,3.56
2017-02-11T15:31:06.641Z,3.6
2017-02-11T15:32:18.045Z,3.56
2017-02-11T15:33:29.456Z,3.46
2017-02-11T15:34:40.863Z,3.53
2017-02-11T15:35:52.316Z,3.54
2017-02-11T15:37:03.719Z,3.56
2017-02-11T15:38:15.128Z,3.43
2017-02-11T15:39:26.737Z,3.43
2017-02-11T15:40:38.154Z,3.37
2017-02-11T15:41:49.557Z,3.37
2017-02-11T15:43:00.967Z,3.35
2017-02-11T15:44:12.374Z,3.24
2017-02-11T15:45:23.816Z,3.21
2017-02-11T15:46:35.473Z,3.14
2017-02-11T15:47:46.877Z,3.14
2017-02-11T15:48:58.286Z,3.14
2017-02-11T15:50:09.882Z,3.14
2017-02-11T15:51:21.489Z,3.09
2017-02-11T15:52:32.941Z,3.09
2017-02-11T15:53:44.550Z,3.13